sensor_id;sensor_type;location;lat;lon;timestamp;temperature;humidity
21807;DHT22;11065;50.786;7.840;2023-07-16T00:02:07;24.00;48.50
21807;DHT22;11065;50.786;7.840;2023-07-16T00:04:35;24.00;48.50
21807;DHT22;11065;50.786;7.840;2023-07-16T00:07:04;24.00;48.50
21807;DHT22;11065;50.786;7.840;2023-07-16T00:09:33;24.00;48.50
21807;DHT22;11065;50.786;7.840;2023-07-16T00:12:01;24.00;48.50
21807;DHT22;11065;50.786;7.840;2023-07-16T00:14:29;23.90;48.50
21807;DHT22;11065;50.786;7.840;2023-07-16T00:16:57;23.90;48.50
21807;DHT22;11065;50.786;7.840;2023-07-16T00:19:25;23.90;48.50
21807;DHT22;11065;50.786;7.840;2023-07-16T00:21:53;23.80;48.50
21807;DHT22;11065;50.786;7.840;2023-07-16T00:24:21;23.80;48.40
21807;DHT22;11065;50.786;7.840;2023-07-16T00:26:51;23.80;48.40
21807;DHT22;11065;50.786;7.840;2023-07-16T00:29:19;23.70;48.70
21807;DHT22;11065;50.786;7.840;2023-07-16T00:31:47;23.70;48.50
21807;DHT22;11065;50.786;7.840;2023-07-16T00:34:15;23.60;48.50
21807;DHT22;11065;50.786;7.840;2023-07-16T00:36:44;23.60;48.40
21807;DHT22;11065;50.786;7.840;2023-07-16T00:39:11;23.50;48.50
21807;DHT22;11065;50.786;7.840;2023-07-16T00:41:40;23.50;48.50
21807;DHT22;11065;50.786;7.840;2023-07-16T00:44:09;23.40;48.50
21807;DHT22;11065;50.786;7.840;2023-07-16T00:46:38;23.40;48.70
21807;DHT22;11065;50.786;7.840;2023-07-16T00:49:06;23.30;48.70
21807;DHT22;11065;50.786;7.840;2023-07-16T00:51:34;23.30;48.80
21807;DHT22;11065;50.786;7.840;2023-07-16T00:54:02;23.20;48.70
21807;DHT22;11065;50.786;7.840;2023-07-16T00:56:31;23.20;48.80
21807;DHT22;11065;50.786;7.840;2023-07-16T00:59:00;23.10;48.90
21807;DHT22;11065;50.786;7.840;2023-07-16T01:01:29;23.10;49.00
21807;DHT22;11065;50.786;7.840;2023-07-16T01:03:57;23.00;49.00
21807;DHT22;11065;50.786;7.840;2023-07-16T01:06:31;23.00;49.00
21807;DHT22;11065;50.786;7.840;2023-07-16T01:09:04;22.90;49.10
21807;DHT22;11065;50.786;7.840;2023-07-16T01:11:34;22.90;49.20
21807;DHT22;11065;50.786;7.840;2023-07-16T01:14:03;22.80;49.20
21807;DHT22;11065;50.786;7.840;2023-07-16T01:16:32;22.80;49.20
21807;DHT22;11065;50.786;7.840;2023-07-16T01:19:00;22.80;49.30
21807;DHT22;11065;50.786;7.840;2023-07-16T01:21:35;22.80;49.90
21807;DHT22;11065;50.786;7.840;2023-07-16T01:24:15;22.80;49.50
21807;DHT22;11065;50.786;7.840;2023-07-16T01:27:04;22.70;49.50
21807;DHT22;11065;50.786;7.840;2023-07-16T01:29:42;22.70;49.60
21807;DHT22;11065;50.786;7.840;2023-07-16T01:32:12;22.70;49.60
21807;DHT22;11065;50.786;7.840;2023-07-16T01:34:41;22.70;49.50
21807;DHT22;11065;50.786;7.840;2023-07-16T01:37:10;22.60;49.50
21807;DHT22;11065;50.786;7.840;2023-07-16T01:39:38;22.70;49.60
21807;DHT22;11065;50.786;7.840;2023-07-16T01:42:06;22.60;49.70
21807;DHT22;11065;50.786;7.840;2023-07-16T01:44:34;22.60;49.70
21807;DHT22;11065;50.786;7.840;2023-07-16T01:47:09;22.60;49.60
21807;DHT22;11065;50.786;7.840;2023-07-16T01:49:37;22.60;49.70
21807;DHT22;11065;50.786;7.840;2023-07-16T01:52:06;22.60;49.70
21807;DHT22;11065;50.786;7.840;2023-07-16T01:54:35;22.60;49.70
21807;DHT22;11065;50.786;7.840;2023-07-16T01:57:04;22.60;49.80
21807;DHT22;11065;50.786;7.840;2023-07-16T01:59:33;22.60;50.00
21807;DHT22;11065;50.786;7.840;2023-07-16T02:02:00;22.60;49.90
21807;DHT22;11065;50.786;7.840;2023-07-16T02:04:30;22.50;50.00
21807;DHT22;11065;50.786;7.840;2023-07-16T02:06:58;22.60;50.00
21807;DHT22;11065;50.786;7.840;2023-07-16T02:09:26;22.50;50.00
21807;DHT22;11065;50.786;7.840;2023-07-16T02:11:54;22.50;50.00
21807;DHT22;11065;50.786;7.840;2023-07-16T02:14:22;22.50;50.00
21807;DHT22;11065;50.786;7.840;2023-07-16T02:16:50;22.50;50.10
21807;DHT22;11065;50.786;7.840;2023-07-16T02:19:18;22.50;50.10
21807;DHT22;11065;50.786;7.840;2023-07-16T02:21:47;22.40;50.30
21807;DHT22;11065;50.786;7.840;2023-07-16T02:24:15;22.40;50.10
21807;DHT22;11065;50.786;7.840;2023-07-16T02:26:43;22.40;50.10
21807;DHT22;11065;50.786;7.840;2023-07-16T02:29:11;22.30;50.10
21807;DHT22;11065;50.786;7.840;2023-07-16T02:31:39;22.30;50.60
21807;DHT22;11065;50.786;7.840;2023-07-16T02:34:08;22.30;50.20
21807;DHT22;11065;50.786;7.840;2023-07-16T02:36:36;22.20;50.20
21807;DHT22;11065;50.786;7.840;2023-07-16T02:39:05;22.20;50.30
21807;DHT22;11065;50.786;7.840;2023-07-16T02:41:33;22.10;50.20
21807;DHT22;11065;50.786;7.840;2023-07-16T02:44:03;22.10;50.30
21807;DHT22;11065;50.786;7.840;2023-07-16T02:46:31;22.00;50.30
21807;DHT22;11065;50.786;7.840;2023-07-16T02:49:00;21.90;50.50
21807;DHT22;11065;50.786;7.840;2023-07-16T02:51:29;21.80;50.40
21807;DHT22;11065;50.786;7.840;2023-07-16T02:53:57;21.80;50.50
21807;DHT22;11065;50.786;7.840;2023-07-16T02:56:26;21.70;50.60
21807;DHT22;11065;50.786;7.840;2023-07-16T02:58:54;21.70;50.60
21807;DHT22;11065;50.786;7.840;2023-07-16T03:01:22;21.60;50.60
21807;DHT22;11065;50.786;7.840;2023-07-16T03:03:51;21.60;51.10
21807;DHT22;11065;50.786;7.840;2023-07-16T03:06:18;21.50;51.10
21807;DHT22;11065;50.786;7.840;2023-07-16T03:08:50;21.50;51.20
21807;DHT22;11065;50.786;7.840;2023-07-16T03:11:18;21.40;51.00
21807;DHT22;11065;50.786;7.840;2023-07-16T03:13:47;21.40;51.10
21807;DHT22;11065;50.786;7.840;2023-07-16T03:16:15;21.30;51.10
21807;DHT22;11065;50.786;7.840;2023-07-16T03:18:44;21.30;51.10
21807;DHT22;11065;50.786;7.840;2023-07-16T03:21:12;21.20;51.50
21807;DHT22;11065;50.786;7.840;2023-07-16T03:23:40;21.20;51.40
21807;DHT22;11065;50.786;7.840;2023-07-16T03:26:08;21.10;51.20
21807;DHT22;11065;50.786;7.840;2023-07-16T03:28:35;21.10;51.80
21807;DHT22;11065;50.786;7.840;2023-07-16T03:31:07;21.00;52.00
21807;DHT22;11065;50.786;7.840;2023-07-16T03:33:38;21.00;51.90
21807;DHT22;11065;50.786;7.840;2023-07-16T03:36:07;21.00;51.80
21807;DHT22;11065;50.786;7.840;2023-07-16T03:38:35;21.00;51.80
21807;DHT22;11065;50.786;7.840;2023-07-16T03:41:03;20.90;51.80
21807;DHT22;11065;50.786;7.840;2023-07-16T03:43:32;20.90;52.20
21807;DHT22;11065;50.786;7.840;2023-07-16T03:46:13;20.90;51.90
21807;DHT22;11065;50.786;7.840;2023-07-16T03:48:41;20.80;52.10
21807;DHT22;11065;50.786;7.840;2023-07-16T03:51:09;20.80;52.20
21807;DHT22;11065;50.786;7.840;2023-07-16T03:53:37;20.80;52.10
21807;DHT22;11065;50.786;7.840;2023-07-16T03:56:05;20.70;52.10
21807;DHT22;11065;50.786;7.840;2023-07-16T03:58:34;20.70;52.40
21807;DHT22;11065;50.786;7.840;2023-07-16T04:01:05;20.70;52.50
21807;DHT22;11065;50.786;7.840;2023-07-16T04:03:34;20.70;52.40
21807;DHT22;11065;50.786;7.840;2023-07-16T04:06:04;20.60;52.40
21807;DHT22;11065;50.786;7.840;2023-07-16T04:08:32;20.60;52.50
21807;DHT22;11065;50.786;7.840;2023-07-16T04:11:00;20.60;52.60
21807;DHT22;11065;50.786;7.840;2023-07-16T04:13:29;20.60;52.50
21807;DHT22;11065;50.786;7.840;2023-07-16T04:15:57;20.60;52.70
21807;DHT22;11065;50.786;7.840;2023-07-16T04:18:25;20.50;52.50
21807;DHT22;11065;50.786;7.840;2023-07-16T04:20:54;20.50;52.80
21807;DHT22;11065;50.786;7.840;2023-07-16T04:23:22;20.50;52.90
21807;DHT22;11065;50.786;7.840;2023-07-16T04:25:52;20.40;52.70
21807;DHT22;11065;50.786;7.840;2023-07-16T04:28:20;20.40;53.40
21807;DHT22;11065;50.786;7.840;2023-07-16T04:30:48;20.40;52.80
21807;DHT22;11065;50.786;7.840;2023-07-16T04:33:16;20.40;52.70
21807;DHT22;11065;50.786;7.840;2023-07-16T04:35:45;20.40;52.90
21807;DHT22;11065;50.786;7.840;2023-07-16T04:38:15;20.40;52.70
21807;DHT22;11065;50.786;7.840;2023-07-16T04:40:42;20.40;52.90
21807;DHT22;11065;50.786;7.840;2023-07-16T04:43:10;20.30;52.90
21807;DHT22;11065;50.786;7.840;2023-07-16T04:45:38;20.30;52.80
21807;DHT22;11065;50.786;7.840;2023-07-16T04:48:07;20.40;53.00
21807;DHT22;11065;50.786;7.840;2023-07-16T04:50:35;20.30;53.10
21807;DHT22;11065;50.786;7.840;2023-07-16T04:53:02;20.40;53.10
21807;DHT22;11065;50.786;7.840;2023-07-16T04:55:36;20.30;53.00
21807;DHT22;11065;50.786;7.840;2023-07-16T04:58:04;20.30;53.20
21807;DHT22;11065;50.786;7.840;2023-07-16T05:00:32;20.30;53.20
21807;DHT22;11065;50.786;7.840;2023-07-16T05:03:00;20.30;53.00
21807;DHT22;11065;50.786;7.840;2023-07-16T05:05:28;20.40;53.00
21807;DHT22;11065;50.786;7.840;2023-07-16T05:07:56;20.40;53.10
21807;DHT22;11065;50.786;7.840;2023-07-16T05:10:24;20.30;52.80
21807;DHT22;11065;50.786;7.840;2023-07-16T05:12:53;20.30;52.80
21807;DHT22;11065;50.786;7.840;2023-07-16T05:15:21;20.40;52.90
21807;DHT22;11065;50.786;7.840;2023-07-16T05:17:49;20.30;52.90
21807;DHT22;11065;50.786;7.840;2023-07-16T05:20:17;20.40;52.80
21807;DHT22;11065;50.786;7.840;2023-07-16T05:22:47;20.40;52.80
21807;DHT22;11065;50.786;7.840;2023-07-16T05:25:15;20.40;52.80
21807;DHT22;11065;50.786;7.840;2023-07-16T05:27:43;20.40;52.70
21807;DHT22;11065;50.786;7.840;2023-07-16T05:30:12;20.40;52.70
21807;DHT22;11065;50.786;7.840;2023-07-16T05:32:40;20.40;52.70
21807;DHT22;11065;50.786;7.840;2023-07-16T05:35:09;20.50;52.70
21807;DHT22;11065;50.786;7.840;2023-07-16T05:37:37;20.50;52.60
21807;DHT22;11065;50.786;7.840;2023-07-16T05:40:06;20.50;52.60
21807;DHT22;11065;50.786;7.840;2023-07-16T05:42:35;20.50;52.50
21807;DHT22;11065;50.786;7.840;2023-07-16T05:45:04;20.50;52.30
21807;DHT22;11065;50.786;7.840;2023-07-16T05:47:33;20.60;52.30
21807;DHT22;11065;50.786;7.840;2023-07-16T05:50:01;20.60;52.10
21807;DHT22;11065;50.786;7.840;2023-07-16T05:52:29;20.60;52.00
21807;DHT22;11065;50.786;7.840;2023-07-16T05:54:58;20.60;51.90
21807;DHT22;11065;50.786;7.840;2023-07-16T05:57:26;20.60;51.80
21807;DHT22;11065;50.786;7.840;2023-07-16T05:59:54;20.60;51.80
21807;DHT22;11065;50.786;7.840;2023-07-16T06:02:22;20.60;51.80
21807;DHT22;11065;50.786;7.840;2023-07-16T06:04:52;20.70;51.60
21807;DHT22;11065;50.786;7.840;2023-07-16T06:07:19;20.70;51.50
21807;DHT22;11065;50.786;7.840;2023-07-16T06:09:47;20.70;51.50
21807;DHT22;11065;50.786;7.840;2023-07-16T06:12:15;20.70;51.60
21807;DHT22;11065;50.786;7.840;2023-07-16T06:14:43;20.80;51.60
21807;DHT22;11065;50.786;7.840;2023-07-16T06:17:11;20.80;51.40
21807;DHT22;11065;50.786;7.840;2023-07-16T06:19:39;20.80;51.30
21807;DHT22;11065;50.786;7.840;2023-07-16T06:22:08;20.80;51.40
21807;DHT22;11065;50.786;7.840;2023-07-16T06:24:36;20.80;51.20
21807;DHT22;11065;50.786;7.840;2023-07-16T06:27:05;20.80;51.20
21807;DHT22;11065;50.786;7.840;2023-07-16T06:29:33;20.90;50.90
21807;DHT22;11065;50.786;7.840;2023-07-16T06:32:01;20.90;51.00
21807;DHT22;11065;50.786;7.840;2023-07-16T06:34:29;20.90;50.90
21807;DHT22;11065;50.786;7.840;2023-07-16T06:36:58;20.90;50.90
21807;DHT22;11065;50.786;7.840;2023-07-16T06:39:27;20.90;50.70
21807;DHT22;11065;50.786;7.840;2023-07-16T06:41:55;20.90;50.40
21807;DHT22;11065;50.786;7.840;2023-07-16T06:44:23;21.00;50.40
21807;DHT22;11065;50.786;7.840;2023-07-16T06:46:51;21.00;50.20
21807;DHT22;11065;50.786;7.840;2023-07-16T06:49:19;21.00;50.10
21807;DHT22;11065;50.786;7.840;2023-07-16T06:51:47;21.00;50.10
21807;DHT22;11065;50.786;7.840;2023-07-16T06:54:15;21.00;49.80
21807;DHT22;11065;50.786;7.840;2023-07-16T06:56:44;21.00;50.10
21807;DHT22;11065;50.786;7.840;2023-07-16T06:59:12;21.10;49.80
21807;DHT22;11065;50.786;7.840;2023-07-16T07:01:40;21.10;49.80
21807;DHT22;11065;50.786;7.840;2023-07-16T07:04:08;21.10;49.40
21807;DHT22;11065;50.786;7.840;2023-07-16T07:06:36;21.10;49.20
21807;DHT22;11065;50.786;7.840;2023-07-16T07:09:04;21.10;49.60
21807;DHT22;11065;50.786;7.840;2023-07-16T07:11:32;21.20;49.40
21807;DHT22;11065;50.786;7.840;2023-07-16T07:14:01;21.20;49.50
21807;DHT22;11065;50.786;7.840;2023-07-16T07:16:29;21.20;48.80
21807;DHT22;11065;50.786;7.840;2023-07-16T07:18:57;21.30;48.90
21807;DHT22;11065;50.786;7.840;2023-07-16T07:21:25;21.20;49.10
21807;DHT22;11065;50.786;7.840;2023-07-16T07:23:53;21.30;49.20
21807;DHT22;11065;50.786;7.840;2023-07-16T07:26:21;21.30;48.60
21807;DHT22;11065;50.786;7.840;2023-07-16T07:28:49;21.40;48.80
21807;DHT22;11065;50.786;7.840;2023-07-16T07:31:18;21.40;48.80
21807;DHT22;11065;50.786;7.840;2023-07-16T07:33:46;21.40;48.70
21807;DHT22;11065;50.786;7.840;2023-07-16T07:36:14;21.50;48.50
21807;DHT22;11065;50.786;7.840;2023-07-16T07:38:42;21.50;48.00
21807;DHT22;11065;50.786;7.840;2023-07-16T07:41:11;21.50;47.00
21807;DHT22;11065;50.786;7.840;2023-07-16T07:43:39;21.50;46.90
21807;DHT22;11065;50.786;7.840;2023-07-16T07:46:06;21.60;47.50
21807;DHT22;11065;50.786;7.840;2023-07-16T07:48:36;21.60;47.00
21807;DHT22;11065;50.786;7.840;2023-07-16T07:51:04;21.70;47.60
21807;DHT22;11065;50.786;7.840;2023-07-16T07:53:32;21.80;47.10
21807;DHT22;11065;50.786;7.840;2023-07-16T07:56:00;21.80;47.00
21807;DHT22;11065;50.786;7.840;2023-07-16T07:58:28;21.90;46.90
21807;DHT22;11065;50.786;7.840;2023-07-16T08:00:56;21.90;46.60
21807;DHT22;11065;50.786;7.840;2023-07-16T08:03:24;21.90;46.10
21807;DHT22;11065;50.786;7.840;2023-07-16T08:05:53;22.00;46.20
21807;DHT22;11065;50.786;7.840;2023-07-16T08:08:21;22.00;46.00
21807;DHT22;11065;50.786;7.840;2023-07-16T08:10:49;22.10;46.40
21807;DHT22;11065;50.786;7.840;2023-07-16T08:13:17;22.10;46.40
21807;DHT22;11065;50.786;7.840;2023-07-16T08:15:45;22.20;46.30
21807;DHT22;11065;50.786;7.840;2023-07-16T08:18:14;22.30;46.30
21807;DHT22;11065;50.786;7.840;2023-07-16T08:20:42;22.30;46.30
21807;DHT22;11065;50.786;7.840;2023-07-16T08:23:12;22.40;46.50
21807;DHT22;11065;50.786;7.840;2023-07-16T08:25:40;22.50;45.90
21807;DHT22;11065;50.786;7.840;2023-07-16T08:28:08;22.60;45.90
21807;DHT22;11065;50.786;7.840;2023-07-16T08:30:36;22.60;44.70
21807;DHT22;11065;50.786;7.840;2023-07-16T08:33:04;22.70;43.90
21807;DHT22;11065;50.786;7.840;2023-07-16T08:35:32;22.70;44.10
21807;DHT22;11065;50.786;7.840;2023-07-16T08:38:01;22.80;44.60
21807;DHT22;11065;50.786;7.840;2023-07-16T08:40:30;22.90;44.40
21807;DHT22;11065;50.786;7.840;2023-07-16T08:42:59;22.90;44.40
21807;DHT22;11065;50.786;7.840;2023-07-16T08:45:28;23.00;44.30
21807;DHT22;11065;50.786;7.840;2023-07-16T08:47:57;23.10;44.30
21807;DHT22;11065;50.786;7.840;2023-07-16T08:50:26;23.10;43.10
21807;DHT22;11065;50.786;7.840;2023-07-16T08:52:58;23.20;43.60
21807;DHT22;11065;50.786;7.840;2023-07-16T08:55:27;23.30;44.20
21807;DHT22;11065;50.786;7.840;2023-07-16T08:57:57;23.40;44.20
21807;DHT22;11065;50.786;7.840;2023-07-16T09:00:26;23.50;43.40
21807;DHT22;11065;50.786;7.840;2023-07-16T09:02:55;23.60;42.50
21807;DHT22;11065;50.786;7.840;2023-07-16T09:05:23;23.70;43.40
21807;DHT22;11065;50.786;7.840;2023-07-16T09:08:05;23.80;42.90
21807;DHT22;11065;50.786;7.840;2023-07-16T09:10:34;24.00;42.50
21807;DHT22;11065;50.786;7.840;2023-07-16T09:13:03;24.20;43.30
21807;DHT22;11065;50.786;7.840;2023-07-16T09:15:31;24.30;42.60
21807;DHT22;11065;50.786;7.840;2023-07-16T09:18:00;24.60;42.90
21807;DHT22;11065;50.786;7.840;2023-07-16T09:20:29;24.80;43.20
21807;DHT22;11065;50.786;7.840;2023-07-16T09:22:57;25.10;43.50
21807;DHT22;11065;50.786;7.840;2023-07-16T09:25:26;25.50;42.70
21807;DHT22;11065;50.786;7.840;2023-07-16T09:27:54;25.80;42.20
21807;DHT22;11065;50.786;7.840;2023-07-16T09:30:23;26.20;41.40
21807;DHT22;11065;50.786;7.840;2023-07-16T09:32:51;26.50;41.60
21807;DHT22;11065;50.786;7.840;2023-07-16T09:35:19;26.80;39.80
21807;DHT22;11065;50.786;7.840;2023-07-16T09:37:47;27.00;40.90
21807;DHT22;11065;50.786;7.840;2023-07-16T09:40:17;27.30;40.10
21807;DHT22;11065;50.786;7.840;2023-07-16T09:42:46;27.50;40.40
21807;DHT22;11065;50.786;7.840;2023-07-16T09:45:17;27.80;40.30
21807;DHT22;11065;50.786;7.840;2023-07-16T09:47:47;28.20;40.30
21807;DHT22;11065;50.786;7.840;2023-07-16T09:50:15;28.50;39.60
21807;DHT22;11065;50.786;7.840;2023-07-16T09:52:43;29.00;41.10
21807;DHT22;11065;50.786;7.840;2023-07-16T09:55:13;29.50;41.30
21807;DHT22;11065;50.786;7.840;2023-07-16T09:57:43;30.10;40.90
21807;DHT22;11065;50.786;7.840;2023-07-16T10:00:13;30.70;40.60
21807;DHT22;11065;50.786;7.840;2023-07-16T10:02:45;31.20;39.20
21807;DHT22;11065;50.786;7.840;2023-07-16T10:05:15;31.50;38.90
21807;DHT22;11065;50.786;7.840;2023-07-16T10:07:49;31.90;38.20
21807;DHT22;11065;50.786;7.840;2023-07-16T10:10:18;32.30;37.80
21807;DHT22;11065;50.786;7.840;2023-07-16T10:12:55;32.80;38.70
21807;DHT22;11065;50.786;7.840;2023-07-16T10:15:27;33.20;34.80
21807;DHT22;11065;50.786;7.840;2023-07-16T10:17:56;33.70;36.20
21807;DHT22;11065;50.786;7.840;2023-07-16T10:20:33;34.10;36.50
21807;DHT22;11065;50.786;7.840;2023-07-16T10:23:10;34.40;34.70
21807;DHT22;11065;50.786;7.840;2023-07-16T10:25:40;34.90;34.50
21807;DHT22;11065;50.786;7.840;2023-07-16T10:28:08;35.20;35.30
21807;DHT22;11065;50.786;7.840;2023-07-16T10:30:36;35.60;34.70
21807;DHT22;11065;50.786;7.840;2023-07-16T10:33:11;35.80;33.40
21807;DHT22;11065;50.786;7.840;2023-07-16T10:35:42;36.10;32.60
21807;DHT22;11065;50.786;7.840;2023-07-16T10:38:10;36.30;32.80
21807;DHT22;11065;50.786;7.840;2023-07-16T10:40:44;36.60;32.70
21807;DHT22;11065;50.786;7.840;2023-07-16T10:43:13;36.90;27.70
21807;DHT22;11065;50.786;7.840;2023-07-16T10:45:41;37.00;29.90
21807;DHT22;11065;50.786;7.840;2023-07-16T10:48:09;37.30;30.00
21807;DHT22;11065;50.786;7.840;2023-07-16T10:50:37;37.50;29.90
21807;DHT22;11065;50.786;7.840;2023-07-16T10:53:06;37.70;29.60
21807;DHT22;11065;50.786;7.840;2023-07-16T10:55:34;37.90;29.50
21807;DHT22;11065;50.786;7.840;2023-07-16T10:58:05;38.10;29.70
21807;DHT22;11065;50.786;7.840;2023-07-16T11:00:38;38.30;29.20
21807;DHT22;11065;50.786;7.840;2023-07-16T11:03:06;38.50;29.40
21807;DHT22;11065;50.786;7.840;2023-07-16T11:05:35;38.60;29.60
21807;DHT22;11065;50.786;7.840;2023-07-16T11:08:03;38.70;28.70
21807;DHT22;11065;50.786;7.840;2023-07-16T11:10:34;38.80;29.10
21807;DHT22;11065;50.786;7.840;2023-07-16T11:13:02;38.90;28.20
21807;DHT22;11065;50.786;7.840;2023-07-16T11:15:31;38.90;28.30
21807;DHT22;11065;50.786;7.840;2023-07-16T11:18:00;38.90;28.30
21807;DHT22;11065;50.786;7.840;2023-07-16T11:20:29;38.70;28.00
21807;DHT22;11065;50.786;7.840;2023-07-16T11:22:58;38.60;27.90
21807;DHT22;11065;50.786;7.840;2023-07-16T11:25:28;38.40;27.90
21807;DHT22;11065;50.786;7.840;2023-07-16T11:27:57;38.10;27.40
21807;DHT22;11065;50.786;7.840;2023-07-16T11:30:25;37.80;27.30
21807;DHT22;11065;50.786;7.840;2023-07-16T11:32:54;37.50;27.10
21807;DHT22;11065;50.786;7.840;2023-07-16T11:35:22;37.20;27.30
21807;DHT22;11065;50.786;7.840;2023-07-16T11:37:50;36.90;27.20
21807;DHT22;11065;50.786;7.840;2023-07-16T11:40:19;36.50;27.50
21807;DHT22;11065;50.786;7.840;2023-07-16T11:42:48;36.30;27.50
21807;DHT22;11065;50.786;7.840;2023-07-16T11:45:19;36.20;27.60
21807;DHT22;11065;50.786;7.840;2023-07-16T11:47:49;36.30;27.60
21807;DHT22;11065;50.786;7.840;2023-07-16T11:50:17;36.50;28.20
21807;DHT22;11065;50.786;7.840;2023-07-16T11:52:52;36.70;28.20
21807;DHT22;11065;50.786;7.840;2023-07-16T11:55:21;36.90;27.90
21807;DHT22;11065;50.786;7.840;2023-07-16T11:57:49;37.10;27.70
21807;DHT22;11065;50.786;7.840;2023-07-16T12:00:18;37.10;27.20
21807;DHT22;11065;50.786;7.840;2023-07-16T12:02:46;37.10;27.00
21807;DHT22;11065;50.786;7.840;2023-07-16T12:05:19;37.00;26.90
21807;DHT22;11065;50.786;7.840;2023-07-16T12:07:54;36.80;27.00
21807;DHT22;11065;50.786;7.840;2023-07-16T12:10:22;36.80;26.80
21807;DHT22;11065;50.786;7.840;2023-07-16T12:12:50;36.60;26.80
21807;DHT22;11065;50.786;7.840;2023-07-16T12:15:19;36.50;26.60
21807;DHT22;11065;50.786;7.840;2023-07-16T12:17:47;36.30;26.50
21807;DHT22;11065;50.786;7.840;2023-07-16T12:20:15;36.00;26.70
21807;DHT22;11065;50.786;7.840;2023-07-16T12:22:43;36.00;26.90
21807;DHT22;11065;50.786;7.840;2023-07-16T12:25:11;36.00;27.00
21807;DHT22;11065;50.786;7.840;2023-07-16T12:27:39;36.10;27.00
21807;DHT22;11065;50.786;7.840;2023-07-16T12:30:07;36.20;27.00
21807;DHT22;11065;50.786;7.840;2023-07-16T12:32:36;36.30;26.80
21807;DHT22;11065;50.786;7.840;2023-07-16T12:35:05;36.20;26.30
21807;DHT22;11065;50.786;7.840;2023-07-16T12:37:33;36.00;26.40
21807;DHT22;11065;50.786;7.840;2023-07-16T12:40:05;35.80;26.20
21807;DHT22;11065;50.786;7.840;2023-07-16T12:42:33;35.60;26.30
21807;DHT22;11065;50.786;7.840;2023-07-16T12:45:01;35.30;25.90
21807;DHT22;11065;50.786;7.840;2023-07-16T12:47:30;35.00;25.90
21807;DHT22;11065;50.786;7.840;2023-07-16T12:50:00;34.60;26.00
21807;DHT22;11065;50.786;7.840;2023-07-16T12:52:28;34.20;26.00
21807;DHT22;11065;50.786;7.840;2023-07-16T12:54:56;33.90;26.30
21807;DHT22;11065;50.786;7.840;2023-07-16T12:57:24;33.60;26.20
21807;DHT22;11065;50.786;7.840;2023-07-16T12:59:52;33.40;26.40
21807;DHT22;11065;50.786;7.840;2023-07-16T13:02:20;33.20;26.60
21807;DHT22;11065;50.786;7.840;2023-07-16T13:04:49;33.10;26.80
21807;DHT22;11065;50.786;7.840;2023-07-16T13:07:18;33.00;27.00
21807;DHT22;11065;50.786;7.840;2023-07-16T13:09:46;33.00;27.00
21807;DHT22;11065;50.786;7.840;2023-07-16T13:12:14;32.90;27.00
21807;DHT22;11065;50.786;7.840;2023-07-16T13:14:42;32.90;27.20
21807;DHT22;11065;50.786;7.840;2023-07-16T13:17:10;32.80;26.90
21807;DHT22;11065;50.786;7.840;2023-07-16T13:19:38;32.70;26.70
21807;DHT22;11065;50.786;7.840;2023-07-16T13:22:06;32.60;26.80
21807;DHT22;11065;50.786;7.840;2023-07-16T13:24:35;32.50;27.00
21807;DHT22;11065;50.786;7.840;2023-07-16T13:27:04;32.50;27.20
21807;DHT22;11065;50.786;7.840;2023-07-16T13:29:32;32.70;27.40
21807;DHT22;11065;50.786;7.840;2023-07-16T13:32:00;32.90;27.60
21807;DHT22;11065;50.786;7.840;2023-07-16T13:34:28;33.20;27.40
21807;DHT22;11065;50.786;7.840;2023-07-16T13:36:56;33.30;27.20
21807;DHT22;11065;50.786;7.840;2023-07-16T13:39:24;33.50;26.90
21807;DHT22;11065;50.786;7.840;2023-07-16T13:41:53;33.40;26.60
21807;DHT22;11065;50.786;7.840;2023-07-16T13:44:34;33.20;26.50
21807;DHT22;11065;50.786;7.840;2023-07-16T13:47:03;33.10;26.70
21807;DHT22;11065;50.786;7.840;2023-07-16T13:49:31;33.00;26.60
21807;DHT22;11065;50.786;7.840;2023-07-16T13:51:59;33.00;26.70
21807;DHT22;11065;50.786;7.840;2023-07-16T13:54:27;32.80;26.60
21807;DHT22;11065;50.786;7.840;2023-07-16T13:56:56;32.70;26.70
21807;DHT22;11065;50.786;7.840;2023-07-16T13:59:24;32.60;26.90
21807;DHT22;11065;50.786;7.840;2023-07-16T14:02:00;32.50;27.00
21807;DHT22;11065;50.786;7.840;2023-07-16T14:04:28;32.50;26.80
21807;DHT22;11065;50.786;7.840;2023-07-16T14:06:56;32.50;26.90
21807;DHT22;11065;50.786;7.840;2023-07-16T14:09:24;32.40;26.90
21807;DHT22;11065;50.786;7.840;2023-07-16T14:11:52;32.40;26.90
21807;DHT22;11065;50.786;7.840;2023-07-16T14:14:22;32.40;27.30
21807;DHT22;11065;50.786;7.840;2023-07-16T14:16:50;32.40;27.00
21807;DHT22;11065;50.786;7.840;2023-07-16T14:19:18;32.50;27.00
21807;DHT22;11065;50.786;7.840;2023-07-16T14:21:46;32.60;27.00
21807;DHT22;11065;50.786;7.840;2023-07-16T14:24:14;32.50;27.00
21807;DHT22;11065;50.786;7.840;2023-07-16T14:26:42;32.50;27.10
21807;DHT22;11065;50.786;7.840;2023-07-16T14:29:10;32.40;26.70
21807;DHT22;11065;50.786;7.840;2023-07-16T14:31:40;32.30;26.80
21807;DHT22;11065;50.786;7.840;2023-07-16T14:34:08;32.30;26.70
21807;DHT22;11065;50.786;7.840;2023-07-16T14:36:36;32.10;26.70
21807;DHT22;11065;50.786;7.840;2023-07-16T14:39:04;32.00;26.60
21807;DHT22;11065;50.786;7.840;2023-07-16T14:41:32;31.90;26.90
21807;DHT22;11065;50.786;7.840;2023-07-16T14:44:00;31.80;26.70
21807;DHT22;11065;50.786;7.840;2023-07-16T14:46:28;31.70;26.70
21807;DHT22;11065;50.786;7.840;2023-07-16T14:48:57;31.50;26.90
21807;DHT22;11065;50.786;7.840;2023-07-16T14:51:25;31.40;26.90
21807;DHT22;11065;50.786;7.840;2023-07-16T14:53:53;31.30;27.00
21807;DHT22;11065;50.786;7.840;2023-07-16T14:56:22;31.20;27.20
21807;DHT22;11065;50.786;7.840;2023-07-16T14:58:49;31.10;27.70
21807;DHT22;11065;50.786;7.840;2023-07-16T15:01:17;31.20;27.30
21807;DHT22;11065;50.786;7.840;2023-07-16T15:03:45;31.10;27.40
21807;DHT22;11065;50.786;7.840;2023-07-16T15:06:15;31.20;27.40
21807;DHT22;11065;50.786;7.840;2023-07-16T15:08:43;31.10;27.30
21807;DHT22;11065;50.786;7.840;2023-07-16T15:11:11;31.00;27.20
21807;DHT22;11065;50.786;7.840;2023-07-16T15:13:39;30.90;27.10
21807;DHT22;11065;50.786;7.840;2023-07-16T15:16:07;30.80;27.20
21807;DHT22;11065;50.786;7.840;2023-07-16T15:18:34;30.70;27.20
21807;DHT22;11065;50.786;7.840;2023-07-16T15:21:03;30.60;27.20
21807;DHT22;11065;50.786;7.840;2023-07-16T15:23:32;30.50;27.20
21807;DHT22;11065;50.786;7.840;2023-07-16T15:26:01;30.40;27.30
21807;DHT22;11065;50.786;7.840;2023-07-16T15:28:31;30.30;27.30
21807;DHT22;11065;50.786;7.840;2023-07-16T15:31:01;30.30;27.40
21807;DHT22;11065;50.786;7.840;2023-07-16T15:33:29;30.20;27.50
21807;DHT22;11065;50.786;7.840;2023-07-16T15:35:57;30.20;27.50
21807;DHT22;11065;50.786;7.840;2023-07-16T15:38:25;30.20;27.50
21807;DHT22;11065;50.786;7.840;2023-07-16T15:40:55;30.10;27.50